<?xml version="1.0" encoding="UTF-8" standalone="no" ?>
<gpx xmlns="http://www.topografix.com/GPX/1/1" xmlns:xsi="http://www.w3.org/2001/XMLSchema-instance" xsi:schemaLocation="http://www.topografix.com/GPX/1/1 http://www.topografix.com/GPX/1/1/gpx.xsd" version="1.1" creator="VisuGPX - https://www.visugpx.com">
  <metadata>
    <name>tour du plateau de Briasq - Escragnole</name>
    <desc><![CDATA[tour du plateau de Briasq - Escragnole
randoxygene n.8]]></desc>
  </metadata>
  <trk>
    <name><![CDATA[2014-11-01 09:58]]></name>
    <desc><![CDATA[<h1>OruxMaps</h1><br /><hr align="center" width="480" style="height: 2px; width: 517px"/><h2>Nom: 2014-11-01 09:58</h2><br /><p>Temps de départ: 11/01/2014 09:58</p><p>Temps d'arrivée: 11/01/2014 15:13</p><p>Distance: 11,2 km (05:15)</p><p>Temps déplacement: 03:29</p><p>Vitesse moyenne: 2,1 km/h</p><p>Vitesse moyenne: 3,2 km/h</p><p>Vitess Max.: 5,9 km/h</p><p>Altitude minimale: 680 m</p><p>Altitude maximale: 1095 m</p><p>Vitesse d'élévation: 241,1 m/h</p><p>Vitesse de descente: -319,9 m/h</p><p>Gain Altitude: 693 m</p><p>Perte Altitude: -697 m</p><p>Temps d'élévation: 02:52</p><p>Temps de descente: 02:10</p><hr align="center" width="480" style="height: 2px; width: 517px"/>]]></desc>
    <trkseg>
      <trkpt lat="43.72921" lon="6.79285">
        <ele>1038.21</ele>
        <time>2014-11-01T08:58:17Z</time>
      </trkpt>
      <trkpt lat="43.72907" lon="6.79301">
        <ele>1039.75</ele>
        <time>2014-11-01T09:06:31Z</time>
      </trkpt>
      <trkpt lat="43.72895" lon="6.79321">
        <ele>1040.44</ele>
        <time>2014-11-01T09:06:52Z</time>
      </trkpt>
      <trkpt lat="43.72887" lon="6.79345">
        <ele>1041.53</ele>
        <time>2014-11-01T09:07:12Z</time>
      </trkpt>
      <trkpt lat="43.72873" lon="6.79362">
        <ele>1043.18</ele>
        <time>2014-11-01T09:07:28Z</time>
      </trkpt>
      <trkpt lat="43.72861" lon="6.79381">
        <ele>1044.71</ele>
        <time>2014-11-01T09:07:56Z</time>
      </trkpt>
      <trkpt lat="43.7285" lon="6.79401">
        <ele>1046.44</ele>
        <time>2014-11-01T09:08:14Z</time>
      </trkpt>
      <trkpt lat="43.72837" lon="6.79421">
        <ele>1048.7</ele>
        <time>2014-11-01T09:08:31Z</time>
      </trkpt>
      <trkpt lat="43.72821" lon="6.79432">
        <ele>1050.66</ele>
        <time>2014-11-01T09:08:46Z</time>
      </trkpt>
      <trkpt lat="43.72803" lon="6.7944">
        <ele>1052.87</ele>
        <time>2014-11-01T09:09:07Z</time>
      </trkpt>
      <trkpt lat="43.72785" lon="6.7944">
        <ele>1054.73</ele>
        <time>2014-11-01T09:09:29Z</time>
      </trkpt>
      <trkpt lat="43.72766" lon="6.79439">
        <ele>1057.91</ele>
        <time>2014-11-01T09:09:50Z</time>
      </trkpt>
      <trkpt lat="43.72749" lon="6.79431">
        <ele>1061.17</ele>
        <time>2014-11-01T09:10:19Z</time>
      </trkpt>
      <trkpt lat="43.72732" lon="6.7942">
        <ele>1061.59</ele>
        <time>2014-11-01T09:10:43Z</time>
      </trkpt>
      <trkpt lat="43.72715" lon="6.7941">
        <ele>1062.18</ele>
        <time>2014-11-01T09:11:11Z</time>
      </trkpt>
      <trkpt lat="43.72698" lon="6.79401">
        <ele>1062.71</ele>
        <time>2014-11-01T09:11:28Z</time>
      </trkpt>
      <trkpt lat="43.72682" lon="6.7939">
        <ele>1062.54</ele>
        <time>2014-11-01T09:11:47Z</time>
      </trkpt>
      <trkpt lat="43.72663" lon="6.79388">
        <ele>1063.1</ele>
        <time>2014-11-01T09:12:09Z</time>
      </trkpt>
      <trkpt lat="43.72646" lon="6.79391">
        <ele>1064.74</ele>
        <time>2014-11-01T09:12:31Z</time>
      </trkpt>
      <trkpt lat="43.72628" lon="6.79398">
        <ele>1066.64</ele>
        <time>2014-11-01T09:12:48Z</time>
      </trkpt>
      <trkpt lat="43.7261" lon="6.79404">
        <ele>1068.24</ele>
        <time>2014-11-01T09:13:06Z</time>
      </trkpt>
      <trkpt lat="43.72593" lon="6.79413">
        <ele>1071.36</ele>
        <time>2014-11-01T09:13:25Z</time>
      </trkpt>
      <trkpt lat="43.72574" lon="6.79418">
        <ele>1073.86</ele>
        <time>2014-11-01T09:13:43Z</time>
      </trkpt>
      <trkpt lat="43.72556" lon="6.79418">
        <ele>1075.21</ele>
        <time>2014-11-01T09:14:01Z</time>
      </trkpt>
      <trkpt lat="43.72538" lon="6.79418">
        <ele>1078.32</ele>
        <time>2014-11-01T09:14:19Z</time>
      </trkpt>
      <trkpt lat="43.72519" lon="6.79419">
        <ele>1081.32</ele>
        <time>2014-11-01T09:14:43Z</time>
      </trkpt>
      <trkpt lat="43.72501" lon="6.79415">
        <ele>1083.81</ele>
        <time>2014-11-01T09:15:01Z</time>
      </trkpt>
      <trkpt lat="43.72483" lon="6.79415">
        <ele>1085.19</ele>
        <time>2014-11-01T09:15:19Z</time>
      </trkpt>
      <trkpt lat="43.72464" lon="6.7942">
        <ele>1087.37</ele>
        <time>2014-11-01T09:15:42Z</time>
      </trkpt>
      <trkpt lat="43.72448" lon="6.79433">
        <ele>1089.28</ele>
        <time>2014-11-01T09:16:01Z</time>
      </trkpt>
      <trkpt lat="43.72431" lon="6.79442">
        <ele>1090.2</ele>
        <time>2014-11-01T09:16:17Z</time>
      </trkpt>
      <trkpt lat="43.72415" lon="6.79454">
        <ele>1090.36</ele>
        <time>2014-11-01T09:16:35Z</time>
      </trkpt>
      <trkpt lat="43.72397" lon="6.79462">
        <ele>1090.43</ele>
        <time>2014-11-01T09:16:54Z</time>
      </trkpt>
      <trkpt lat="43.7238" lon="6.79472">
        <ele>1090.33</ele>
        <time>2014-11-01T09:17:10Z</time>
      </trkpt>
      <trkpt lat="43.72365" lon="6.79486">
        <ele>1089.37</ele>
        <time>2014-11-01T09:17:27Z</time>
      </trkpt>
      <trkpt lat="43.72349" lon="6.79499">
        <ele>1088.1</ele>
        <time>2014-11-01T09:17:44Z</time>
      </trkpt>
      <trkpt lat="43.72333" lon="6.7951">
        <ele>1086.52</ele>
        <time>2014-11-01T09:18:07Z</time>
      </trkpt>
      <trkpt lat="43.72317" lon="6.79496">
        <ele>1087.58</ele>
        <time>2014-11-01T09:18:23Z</time>
      </trkpt>
      <trkpt lat="43.72327" lon="6.79517">
        <ele>1084.77</ele>
        <time>2014-11-01T09:19:00Z</time>
      </trkpt>
      <trkpt lat="43.72309" lon="6.7952">
        <ele>1082.16</ele>
        <time>2014-11-01T09:19:19Z</time>
      </trkpt>
      <trkpt lat="43.72291" lon="6.79511">
        <ele>1079.18</ele>
        <time>2014-11-01T09:19:39Z</time>
      </trkpt>
      <trkpt lat="43.72274" lon="6.79503">
        <ele>1079.62</ele>
        <time>2014-11-01T09:19:55Z</time>
      </trkpt>
      <trkpt lat="43.72257" lon="6.79493">
        <ele>1078.17</ele>
        <time>2014-11-01T09:20:14Z</time>
      </trkpt>
      <trkpt lat="43.72241" lon="6.7948">
        <ele>1081.21</ele>
        <time>2014-11-01T09:20:36Z</time>
      </trkpt>
      <trkpt lat="43.72228" lon="6.79463">
        <ele>1087.18</ele>
        <time>2014-11-01T09:20:49Z</time>
      </trkpt>
      <trkpt lat="43.72211" lon="6.79452">
        <ele>1088.19</ele>
        <time>2014-11-01T09:21:06Z</time>
      </trkpt>
      <trkpt lat="43.72197" lon="6.79437">
        <ele>1091.57</ele>
        <time>2014-11-01T09:21:20Z</time>
      </trkpt>
      <trkpt lat="43.72182" lon="6.79421">
        <ele>1095.66</ele>
        <time>2014-11-01T09:21:36Z</time>
      </trkpt>
      <trkpt lat="43.72164" lon="6.79412">
        <ele>1095.89</ele>
        <time>2014-11-01T09:21:53Z</time>
      </trkpt>
      <trkpt lat="43.72146" lon="6.79409">
        <ele>1093.85</ele>
        <time>2014-11-01T09:22:09Z</time>
      </trkpt>
      <trkpt lat="43.72127" lon="6.79405">
        <ele>1093.2</ele>
        <time>2014-11-01T09:22:25Z</time>
      </trkpt>
      <trkpt lat="43.72109" lon="6.79406">
        <ele>1090.82</ele>
        <time>2014-11-01T09:22:44Z</time>
      </trkpt>
      <trkpt lat="43.72093" lon="6.79416">
        <ele>1085.42</ele>
        <time>2014-11-01T09:22:59Z</time>
      </trkpt>
      <trkpt lat="43.72076" lon="6.79425">
        <ele>1077.12</ele>
        <time>2014-11-01T09:23:13Z</time>
      </trkpt>
      <trkpt lat="43.72059" lon="6.79432">
        <ele>1068.73</ele>
        <time>2014-11-01T09:23:28Z</time>
      </trkpt>
      <trkpt lat="43.7204" lon="6.79426">
        <ele>1072.25</ele>
        <time>2014-11-01T09:23:43Z</time>
      </trkpt>
      <trkpt lat="43.72024" lon="6.79416">
        <ele>1080.17</ele>
        <time>2014-11-01T09:24:00Z</time>
      </trkpt>
      <trkpt lat="43.72007" lon="6.79404">
        <ele>1083.16</ele>
        <time>2014-11-01T09:24:15Z</time>
      </trkpt>
      <trkpt lat="43.71988" lon="6.79398">
        <ele>1082.88</ele>
        <time>2014-11-01T09:24:34Z</time>
      </trkpt>
      <trkpt lat="43.71972" lon="6.79387">
        <ele>1084.96</ele>
        <time>2014-11-01T09:24:51Z</time>
      </trkpt>
      <trkpt lat="43.71953" lon="6.79382">
        <ele>1086.99</ele>
        <time>2014-11-01T09:25:11Z</time>
      </trkpt>
      <trkpt lat="43.71935" lon="6.79385">
        <ele>1085.52</ele>
        <time>2014-11-01T09:25:28Z</time>
      </trkpt>
      <trkpt lat="43.71917" lon="6.79379">
        <ele>1088.11</ele>
        <time>2014-11-01T09:25:45Z</time>
      </trkpt>
      <trkpt lat="43.71898" lon="6.7938">
        <ele>1086.46</ele>
        <time>2014-11-01T09:26:03Z</time>
      </trkpt>
      <trkpt lat="43.7188" lon="6.79385">
        <ele>1083.41</ele>
        <time>2014-11-01T09:26:19Z</time>
      </trkpt>
      <trkpt lat="43.71862" lon="6.79391">
        <ele>1079.02</ele>
        <time>2014-11-01T09:26:36Z</time>
      </trkpt>
      <trkpt lat="43.71846" lon="6.79402">
        <ele>1072.75</ele>
        <time>2014-11-01T09:26:51Z</time>
      </trkpt>
      <trkpt lat="43.71832" lon="6.79418">
        <ele>1062.44</ele>
        <time>2014-11-01T09:27:06Z</time>
      </trkpt>
      <trkpt lat="43.71816" lon="6.79434">
        <ele>1048.69</ele>
        <time>2014-11-01T09:27:24Z</time>
      </trkpt>
      <trkpt lat="43.71801" lon="6.79451">
        <ele>1035.67</ele>
        <time>2014-11-01T09:27:41Z</time>
      </trkpt>
      <trkpt lat="43.71784" lon="6.79463">
        <ele>1027.46</ele>
        <time>2014-11-01T09:27:59Z</time>
      </trkpt>
      <trkpt lat="43.71766" lon="6.79467">
        <ele>1022.04</ele>
        <time>2014-11-01T09:28:15Z</time>
      </trkpt>
      <trkpt lat="43.71748" lon="6.79463">
        <ele>1019.28</ele>
        <time>2014-11-01T09:28:30Z</time>
      </trkpt>
      <trkpt lat="43.7173" lon="6.79455">
        <ele>1018.64</ele>
        <time>2014-11-01T09:28:47Z</time>
      </trkpt>
      <trkpt lat="43.71712" lon="6.79447">
        <ele>1020.47</ele>
        <time>2014-11-01T09:29:02Z</time>
      </trkpt>
      <trkpt lat="43.71695" lon="6.79439">
        <ele>1026.27</ele>
        <time>2014-11-01T09:29:16Z</time>
      </trkpt>
      <trkpt lat="43.71679" lon="6.79424">
        <ele>1030.26</ele>
        <time>2014-11-01T09:29:31Z</time>
      </trkpt>
      <trkpt lat="43.71664" lon="6.79409">
        <ele>1032.85</ele>
        <time>2014-11-01T09:29:52Z</time>
      </trkpt>
      <trkpt lat="43.71648" lon="6.79397">
        <ele>1035.16</ele>
        <time>2014-11-01T09:30:08Z</time>
      </trkpt>
      <trkpt lat="43.71629" lon="6.7939">
        <ele>1031.83</ele>
        <time>2014-11-01T09:30:26Z</time>
      </trkpt>
      <trkpt lat="43.71612" lon="6.79384">
        <ele>1028.63</ele>
        <time>2014-11-01T09:30:44Z</time>
      </trkpt>
      <trkpt lat="43.71594" lon="6.79376">
        <ele>1025.15</ele>
        <time>2014-11-01T09:30:58Z</time>
      </trkpt>
      <trkpt lat="43.71578" lon="6.79365">
        <ele>1025.31</ele>
        <time>2014-11-01T09:31:15Z</time>
      </trkpt>
      <trkpt lat="43.7156" lon="6.79356">
        <ele>1022.73</ele>
        <time>2014-11-01T09:31:35Z</time>
      </trkpt>
      <trkpt lat="43.71544" lon="6.79342">
        <ele>1028.93</ele>
        <time>2014-11-01T09:31:51Z</time>
      </trkpt>
      <trkpt lat="43.71526" lon="6.79333">
        <ele>1029.21</ele>
        <time>2014-11-01T09:32:06Z</time>
      </trkpt>
      <trkpt lat="43.71507" lon="6.79331">
        <ele>1020.08</ele>
        <time>2014-11-01T09:32:22Z</time>
      </trkpt>
      <trkpt lat="43.71489" lon="6.79322">
        <ele>1018.16</ele>
        <time>2014-11-01T09:32:40Z</time>
      </trkpt>
      <trkpt lat="43.71474" lon="6.79309">
        <ele>1020.58</ele>
        <time>2014-11-01T09:32:57Z</time>
      </trkpt>
      <trkpt lat="43.71457" lon="6.79297">
        <ele>1020.82</ele>
        <time>2014-11-01T09:33:13Z</time>
      </trkpt>
      <trkpt lat="43.7144" lon="6.79285">
        <ele>1021.95</ele>
        <time>2014-11-01T09:33:29Z</time>
      </trkpt>
      <trkpt lat="43.71422" lon="6.79275">
        <ele>1019.9</ele>
        <time>2014-11-01T09:33:47Z</time>
      </trkpt>
      <trkpt lat="43.71404" lon="6.7927">
        <ele>1016.75</ele>
        <time>2014-11-01T09:34:05Z</time>
      </trkpt>
      <trkpt lat="43.71386" lon="6.79267">
        <ele>1013.96</ele>
        <time>2014-11-01T09:34:21Z</time>
      </trkpt>
      <trkpt lat="43.71369" lon="6.79255">
        <ele>1018.26</ele>
        <time>2014-11-01T09:34:39Z</time>
      </trkpt>
      <trkpt lat="43.71351" lon="6.79247">
        <ele>1019.21</ele>
        <time>2014-11-01T09:34:56Z</time>
      </trkpt>
      <trkpt lat="43.71333" lon="6.79241">
        <ele>1017.98</ele>
        <time>2014-11-01T09:35:13Z</time>
      </trkpt>
      <trkpt lat="43.71315" lon="6.79241">
        <ele>1013.63</ele>
        <time>2014-11-01T09:35:31Z</time>
      </trkpt>
      <trkpt lat="43.71297" lon="6.79247">
        <ele>1008.29</ele>
        <time>2014-11-01T09:37:31Z</time>
      </trkpt>
      <trkpt lat="43.71279" lon="6.79259">
        <ele>1002.11</ele>
        <time>2014-11-01T09:38:06Z</time>
      </trkpt>
      <trkpt lat="43.7126" lon="6.79261">
        <ele>997.37</ele>
        <time>2014-11-01T09:38:35Z</time>
      </trkpt>
      <trkpt lat="43.71242" lon="6.7926">
        <ele>995.83</ele>
        <time>2014-11-01T09:39:08Z</time>
      </trkpt>
      <trkpt lat="43.71224" lon="6.79267">
        <ele>992.71</ele>
        <time>2014-11-01T09:39:43Z</time>
      </trkpt>
      <trkpt lat="43.71205" lon="6.79271">
        <ele>991.1</ele>
        <time>2014-11-01T09:40:10Z</time>
      </trkpt>
      <trkpt lat="43.7119" lon="6.79285">
        <ele>983.07</ele>
        <time>2014-11-01T09:40:37Z</time>
      </trkpt>
      <trkpt lat="43.71173" lon="6.79291">
        <ele>979.52</ele>
        <time>2014-11-01T09:40:58Z</time>
      </trkpt>
      <trkpt lat="43.71155" lon="6.79297">
        <ele>972.87</ele>
        <time>2014-11-01T09:41:24Z</time>
      </trkpt>
      <trkpt lat="43.71139" lon="6.79311">
        <ele>959.77</ele>
        <time>2014-11-01T09:41:42Z</time>
      </trkpt>
      <trkpt lat="43.71121" lon="6.79313">
        <ele>958.72</ele>
        <time>2014-11-01T09:42:05Z</time>
      </trkpt>
      <trkpt lat="43.71128" lon="6.79336">
        <ele>943.68</ele>
        <time>2014-11-01T09:42:53Z</time>
      </trkpt>
      <trkpt lat="43.71147" lon="6.79338">
        <ele>942.71</ele>
        <time>2014-11-01T09:43:12Z</time>
      </trkpt>
      <trkpt lat="43.71135" lon="6.79356">
        <ele>924.37</ele>
        <time>2014-11-01T09:43:50Z</time>
      </trkpt>
      <trkpt lat="43.71117" lon="6.79364">
        <ele>918.41</ele>
        <time>2014-11-01T09:44:20Z</time>
      </trkpt>
      <trkpt lat="43.71099" lon="6.7937">
        <ele>915.11</ele>
        <time>2014-11-01T09:44:47Z</time>
      </trkpt>
      <trkpt lat="43.71083" lon="6.7938">
        <ele>909.76</ele>
        <time>2014-11-01T09:45:13Z</time>
      </trkpt>
      <trkpt lat="43.71066" lon="6.79389">
        <ele>905.11</ele>
        <time>2014-11-01T09:45:35Z</time>
      </trkpt>
      <trkpt lat="43.71048" lon="6.79394">
        <ele>903.62</ele>
        <time>2014-11-01T09:46:01Z</time>
      </trkpt>
      <trkpt lat="43.71029" lon="6.79398">
        <ele>902.78</ele>
        <time>2014-11-01T09:46:20Z</time>
      </trkpt>
      <trkpt lat="43.71011" lon="6.79404">
        <ele>902.69</ele>
        <time>2014-11-01T09:46:39Z</time>
      </trkpt>
      <trkpt lat="43.70994" lon="6.79413">
        <ele>901.18</ele>
        <time>2014-11-01T09:47:05Z</time>
      </trkpt>
      <trkpt lat="43.70977" lon="6.79421">
        <ele>898.67</ele>
        <time>2014-11-01T09:47:33Z</time>
      </trkpt>
      <trkpt lat="43.70958" lon="6.79423">
        <ele>898.04</ele>
        <time>2014-11-01T09:47:52Z</time>
      </trkpt>
      <trkpt lat="43.70939" lon="6.79427">
        <ele>897.65</ele>
        <time>2014-11-01T09:48:11Z</time>
      </trkpt>
      <trkpt lat="43.70921" lon="6.79437">
        <ele>896.37</ele>
        <time>2014-11-01T09:48:29Z</time>
      </trkpt>
      <trkpt lat="43.70903" lon="6.79444">
        <ele>893.37</ele>
        <time>2014-11-01T09:49:42Z</time>
      </trkpt>
      <trkpt lat="43.70885" lon="6.79436">
        <ele>896.28</ele>
        <time>2014-11-01T09:49:58Z</time>
      </trkpt>
      <trkpt lat="43.70867" lon="6.7943">
        <ele>901.25</ele>
        <time>2014-11-01T09:50:17Z</time>
      </trkpt>
      <trkpt lat="43.70849" lon="6.79433">
        <ele>900.49</ele>
        <time>2014-11-01T09:50:38Z</time>
      </trkpt>
      <trkpt lat="43.70831" lon="6.79434">
        <ele>899.79</ele>
        <time>2014-11-01T09:51:21Z</time>
      </trkpt>
      <trkpt lat="43.70813" lon="6.79442">
        <ele>896.1</ele>
        <time>2014-11-01T09:51:39Z</time>
      </trkpt>
      <trkpt lat="43.70795" lon="6.79449">
        <ele>893.78</ele>
        <time>2014-11-01T09:51:58Z</time>
      </trkpt>
      <trkpt lat="43.70781" lon="6.79466">
        <ele>889.43</ele>
        <time>2014-11-01T09:52:16Z</time>
      </trkpt>
      <trkpt lat="43.70765" lon="6.79481">
        <ele>882.33</ele>
        <time>2014-11-01T09:52:35Z</time>
      </trkpt>
      <trkpt lat="43.70748" lon="6.79493">
        <ele>874.94</ele>
        <time>2014-11-01T09:52:53Z</time>
      </trkpt>
      <trkpt lat="43.70736" lon="6.79512">
        <ele>866.41</ele>
        <time>2014-11-01T09:53:11Z</time>
      </trkpt>
      <trkpt lat="43.70722" lon="6.79527">
        <ele>860.12</ele>
        <time>2014-11-01T09:53:37Z</time>
      </trkpt>
      <trkpt lat="43.70707" lon="6.79542">
        <ele>851.51</ele>
        <time>2014-11-01T09:53:56Z</time>
      </trkpt>
      <trkpt lat="43.70692" lon="6.79556">
        <ele>844.47</ele>
        <time>2014-11-01T09:54:16Z</time>
      </trkpt>
      <trkpt lat="43.7068" lon="6.79576">
        <ele>836.44</ele>
        <time>2014-11-01T09:54:38Z</time>
      </trkpt>
      <trkpt lat="43.70666" lon="6.79594">
        <ele>831.19</ele>
        <time>2014-11-01T09:54:55Z</time>
      </trkpt>
      <trkpt lat="43.70652" lon="6.7961">
        <ele>826.13</ele>
        <time>2014-11-01T09:55:28Z</time>
      </trkpt>
      <trkpt lat="43.70636" lon="6.79623">
        <ele>822.53</ele>
        <time>2014-11-01T09:55:47Z</time>
      </trkpt>
      <trkpt lat="43.70619" lon="6.79632">
        <ele>819.68</ele>
        <time>2014-11-01T09:56:14Z</time>
      </trkpt>
      <trkpt lat="43.706" lon="6.79625">
        <ele>819.23</ele>
        <time>2014-11-01T09:56:34Z</time>
      </trkpt>
      <trkpt lat="43.70582" lon="6.79618">
        <ele>818.73</ele>
        <time>2014-11-01T09:56:52Z</time>
      </trkpt>
      <trkpt lat="43.70564" lon="6.79617">
        <ele>813.21</ele>
        <time>2014-11-01T09:57:15Z</time>
      </trkpt>
      <trkpt lat="43.70547" lon="6.79611">
        <ele>808.51</ele>
        <time>2014-11-01T09:57:39Z</time>
      </trkpt>
      <trkpt lat="43.70529" lon="6.79613">
        <ele>803</ele>
        <time>2014-11-01T09:58:40Z</time>
      </trkpt>
      <trkpt lat="43.7051" lon="6.79609">
        <ele>801.38</ele>
        <time>2014-11-01T09:59:07Z</time>
      </trkpt>
      <trkpt lat="43.70493" lon="6.796">
        <ele>796.11</ele>
        <time>2014-11-01T09:59:32Z</time>
      </trkpt>
      <trkpt lat="43.70477" lon="6.79585">
        <ele>790.32</ele>
        <time>2014-11-01T10:00:05Z</time>
      </trkpt>
      <trkpt lat="43.70462" lon="6.79569">
        <ele>784.97</ele>
        <time>2014-11-01T10:00:25Z</time>
      </trkpt>
      <trkpt lat="43.70449" lon="6.79551">
        <ele>781.62</ele>
        <time>2014-11-01T10:00:42Z</time>
      </trkpt>
      <trkpt lat="43.70443" lon="6.79527">
        <ele>779.03</ele>
        <time>2014-11-01T10:01:02Z</time>
      </trkpt>
      <trkpt lat="43.70442" lon="6.79502">
        <ele>777.67</ele>
        <time>2014-11-01T10:01:26Z</time>
      </trkpt>
      <trkpt lat="43.70439" lon="6.79477">
        <ele>770.48</ele>
        <time>2014-11-01T10:01:50Z</time>
      </trkpt>
      <trkpt lat="43.70437" lon="6.79452">
        <ele>763.18</ele>
        <time>2014-11-01T10:02:13Z</time>
      </trkpt>
      <trkpt lat="43.7044" lon="6.79427">
        <ele>761.88</ele>
        <time>2014-11-01T10:02:36Z</time>
      </trkpt>
      <trkpt lat="43.70451" lon="6.79406">
        <ele>767.81</ele>
        <time>2014-11-01T10:03:05Z</time>
      </trkpt>
      <trkpt lat="43.70457" lon="6.79383">
        <ele>767.36</ele>
        <time>2014-11-01T10:04:02Z</time>
      </trkpt>
      <trkpt lat="43.70468" lon="6.79362">
        <ele>766.56</ele>
        <time>2014-11-01T10:04:29Z</time>
      </trkpt>
      <trkpt lat="43.70476" lon="6.7934">
        <ele>764.63</ele>
        <time>2014-11-01T10:04:49Z</time>
      </trkpt>
      <trkpt lat="43.70484" lon="6.79317">
        <ele>766.69</ele>
        <time>2014-11-01T10:05:07Z</time>
      </trkpt>
      <trkpt lat="43.70495" lon="6.79297">
        <ele>771.49</ele>
        <time>2014-11-01T10:05:31Z</time>
      </trkpt>
      <trkpt lat="43.70509" lon="6.7928">
        <ele>774.98</ele>
        <time>2014-11-01T10:05:54Z</time>
      </trkpt>
      <trkpt lat="43.70515" lon="6.79255">
        <ele>772.62</ele>
        <time>2014-11-01T10:06:15Z</time>
      </trkpt>
      <trkpt lat="43.70523" lon="6.79229">
        <ele>771.55</ele>
        <time>2014-11-01T10:06:41Z</time>
      </trkpt>
      <trkpt lat="43.70527" lon="6.79204">
        <ele>771.71</ele>
        <time>2014-11-01T10:07:01Z</time>
      </trkpt>
      <trkpt lat="43.70538" lon="6.79184">
        <ele>776.02</ele>
        <time>2014-11-01T10:07:36Z</time>
      </trkpt>
      <trkpt lat="43.70549" lon="6.79163">
        <ele>780.91</ele>
        <time>2014-11-01T10:07:56Z</time>
      </trkpt>
      <trkpt lat="43.70561" lon="6.79143">
        <ele>787.65</ele>
        <time>2014-11-01T10:08:17Z</time>
      </trkpt>
      <trkpt lat="43.70569" lon="6.7912">
        <ele>795.75</ele>
        <time>2014-11-01T10:08:40Z</time>
      </trkpt>
      <trkpt lat="43.70578" lon="6.79098">
        <ele>804.45</ele>
        <time>2014-11-01T10:09:00Z</time>
      </trkpt>
      <trkpt lat="43.70579" lon="6.79072">
        <ele>809.78</ele>
        <time>2014-11-01T10:09:24Z</time>
      </trkpt>
      <trkpt lat="43.70579" lon="6.79046">
        <ele>813.7</ele>
        <time>2014-11-01T10:09:39Z</time>
      </trkpt>
      <trkpt lat="43.7058" lon="6.79019">
        <ele>817.83</ele>
        <time>2014-11-01T10:10:00Z</time>
      </trkpt>
      <trkpt lat="43.7058" lon="6.78994">
        <ele>819.04</ele>
        <time>2014-11-01T10:10:18Z</time>
      </trkpt>
      <trkpt lat="43.70575" lon="6.78969">
        <ele>819.76</ele>
        <time>2014-11-01T10:10:48Z</time>
      </trkpt>
      <trkpt lat="43.70574" lon="6.78945">
        <ele>822.92</ele>
        <time>2014-11-01T10:11:05Z</time>
      </trkpt>
      <trkpt lat="43.70563" lon="6.78925">
        <ele>815.78</ele>
        <time>2014-11-01T10:11:24Z</time>
      </trkpt>
      <trkpt lat="43.70552" lon="6.78904">
        <ele>810</ele>
        <time>2014-11-01T10:11:45Z</time>
      </trkpt>
      <trkpt lat="43.70544" lon="6.78881">
        <ele>807.14</ele>
        <time>2014-11-01T10:12:05Z</time>
      </trkpt>
      <trkpt lat="43.70536" lon="6.78858">
        <ele>803.92</ele>
        <time>2014-11-01T10:12:27Z</time>
      </trkpt>
      <trkpt lat="43.70544" lon="6.78835">
        <ele>809.1</ele>
        <time>2014-11-01T10:12:47Z</time>
      </trkpt>
      <trkpt lat="43.70553" lon="6.78812">
        <ele>816.08</ele>
        <time>2014-11-01T10:13:02Z</time>
      </trkpt>
      <trkpt lat="43.70567" lon="6.78794">
        <ele>831.9</ele>
        <time>2014-11-01T10:13:25Z</time>
      </trkpt>
      <trkpt lat="43.70577" lon="6.7877">
        <ele>846.7</ele>
        <time>2014-11-01T10:13:50Z</time>
      </trkpt>
      <trkpt lat="43.70594" lon="6.78761">
        <ele>858.05</ele>
        <time>2014-11-01T10:17:21Z</time>
      </trkpt>
      <trkpt lat="43.70598" lon="6.78736">
        <ele>864.11</ele>
        <time>2014-11-01T10:17:53Z</time>
      </trkpt>
      <trkpt lat="43.70592" lon="6.78712">
        <ele>868.94</ele>
        <time>2014-11-01T10:18:16Z</time>
      </trkpt>
      <trkpt lat="43.70589" lon="6.78687">
        <ele>875.2</ele>
        <time>2014-11-01T10:18:36Z</time>
      </trkpt>
      <trkpt lat="43.7058" lon="6.78665">
        <ele>877.51</ele>
        <time>2014-11-01T10:18:59Z</time>
      </trkpt>
      <trkpt lat="43.70569" lon="6.78643">
        <ele>881.12</ele>
        <time>2014-11-01T10:19:21Z</time>
      </trkpt>
      <trkpt lat="43.7056" lon="6.78622">
        <ele>883.87</ele>
        <time>2014-11-01T10:19:38Z</time>
      </trkpt>
      <trkpt lat="43.70551" lon="6.78599">
        <ele>886.79</ele>
        <time>2014-11-01T10:19:57Z</time>
      </trkpt>
      <trkpt lat="43.70543" lon="6.78577">
        <ele>890.35</ele>
        <time>2014-11-01T10:20:21Z</time>
      </trkpt>
      <trkpt lat="43.70534" lon="6.78554">
        <ele>894.4</ele>
        <time>2014-11-01T10:20:46Z</time>
      </trkpt>
      <trkpt lat="43.70533" lon="6.78529">
        <ele>898.86</ele>
        <time>2014-11-01T10:21:29Z</time>
      </trkpt>
      <trkpt lat="43.70516" lon="6.78519">
        <ele>898.18</ele>
        <time>2014-11-01T10:23:17Z</time>
      </trkpt>
      <trkpt lat="43.70522" lon="6.78496">
        <ele>906.24</ele>
        <time>2014-11-01T10:24:29Z</time>
      </trkpt>
      <trkpt lat="43.70504" lon="6.78491">
        <ele>903.71</ele>
        <time>2014-11-01T10:25:27Z</time>
      </trkpt>
      <trkpt lat="43.70496" lon="6.78468">
        <ele>908.86</ele>
        <time>2014-11-01T10:25:51Z</time>
      </trkpt>
      <trkpt lat="43.70482" lon="6.78451">
        <ele>909.55</ele>
        <time>2014-11-01T10:26:12Z</time>
      </trkpt>
      <trkpt lat="43.70472" lon="6.7843">
        <ele>913.75</ele>
        <time>2014-11-01T10:26:40Z</time>
      </trkpt>
      <trkpt lat="43.7046" lon="6.78411">
        <ele>916.94</ele>
        <time>2014-11-01T10:27:11Z</time>
      </trkpt>
      <trkpt lat="43.70442" lon="6.78404">
        <ele>914.23</ele>
        <time>2014-11-01T10:27:39Z</time>
      </trkpt>
      <trkpt lat="43.70424" lon="6.784">
        <ele>912.76</ele>
        <time>2014-11-01T10:28:02Z</time>
      </trkpt>
      <trkpt lat="43.70408" lon="6.7839">
        <ele>912.14</ele>
        <time>2014-11-01T10:30:49Z</time>
      </trkpt>
      <trkpt lat="43.70391" lon="6.78378">
        <ele>910.37</ele>
        <time>2014-11-01T10:31:08Z</time>
      </trkpt>
      <trkpt lat="43.70378" lon="6.7836">
        <ele>912.78</ele>
        <time>2014-11-01T10:31:39Z</time>
      </trkpt>
      <trkpt lat="43.70365" lon="6.78343">
        <ele>916.06</ele>
        <time>2014-11-01T10:31:57Z</time>
      </trkpt>
      <trkpt lat="43.70347" lon="6.78337">
        <ele>913.72</ele>
        <time>2014-11-01T10:32:21Z</time>
      </trkpt>
      <trkpt lat="43.70333" lon="6.78319">
        <ele>916.04</ele>
        <time>2014-11-01T10:32:50Z</time>
      </trkpt>
      <trkpt lat="43.70348" lon="6.78305">
        <ele>925.66</ele>
        <time>2014-11-01T10:34:20Z</time>
      </trkpt>
      <trkpt lat="43.70367" lon="6.78303">
        <ele>931.91</ele>
        <time>2014-11-01T10:34:50Z</time>
      </trkpt>
      <trkpt lat="43.70385" lon="6.78301">
        <ele>936.71</ele>
        <time>2014-11-01T10:35:20Z</time>
      </trkpt>
      <trkpt lat="43.70404" lon="6.783">
        <ele>945.57</ele>
        <time>2014-11-01T10:36:05Z</time>
      </trkpt>
      <trkpt lat="43.7042" lon="6.78289">
        <ele>956.68</ele>
        <time>2014-11-01T10:36:48Z</time>
      </trkpt>
      <trkpt lat="43.70435" lon="6.78275">
        <ele>960.53</ele>
        <time>2014-11-01T10:38:13Z</time>
      </trkpt>
      <trkpt lat="43.70421" lon="6.78259">
        <ele>956.55</ele>
        <time>2014-11-01T10:43:37Z</time>
      </trkpt>
      <trkpt lat="43.70403" lon="6.78256">
        <ele>953.14</ele>
        <time>2014-11-01T10:43:56Z</time>
      </trkpt>
      <trkpt lat="43.7042" lon="6.78244">
        <ele>951.29</ele>
        <time>2014-11-01T10:44:21Z</time>
      </trkpt>
      <trkpt lat="43.70438" lon="6.78237">
        <ele>945.56</ele>
        <time>2014-11-01T10:44:43Z</time>
      </trkpt>
      <trkpt lat="43.70454" lon="6.78227">
        <ele>937.7</ele>
        <time>2014-11-01T10:45:01Z</time>
      </trkpt>
      <trkpt lat="43.7047" lon="6.78216">
        <ele>930.07</ele>
        <time>2014-11-01T10:45:26Z</time>
      </trkpt>
      <trkpt lat="43.70489" lon="6.78208">
        <ele>928.54</ele>
        <time>2014-11-01T10:45:41Z</time>
      </trkpt>
      <trkpt lat="43.70505" lon="6.78198">
        <ele>927.4</ele>
        <time>2014-11-01T10:45:59Z</time>
      </trkpt>
      <trkpt lat="43.7052" lon="6.78182">
        <ele>920.86</ele>
        <time>2014-11-01T10:46:20Z</time>
      </trkpt>
      <trkpt lat="43.70532" lon="6.78163">
        <ele>912.26</ele>
        <time>2014-11-01T10:46:43Z</time>
      </trkpt>
      <trkpt lat="43.70543" lon="6.78143">
        <ele>905.06</ele>
        <time>2014-11-01T10:47:03Z</time>
      </trkpt>
      <trkpt lat="43.70555" lon="6.78124">
        <ele>899.8</ele>
        <time>2014-11-01T10:47:26Z</time>
      </trkpt>
      <trkpt lat="43.70565" lon="6.78102">
        <ele>897.36</ele>
        <time>2014-11-01T10:48:06Z</time>
      </trkpt>
      <trkpt lat="43.70571" lon="6.78078">
        <ele>893.82</ele>
        <time>2014-11-01T10:48:21Z</time>
      </trkpt>
      <trkpt lat="43.70582" lon="6.78056">
        <ele>893.63</ele>
        <time>2014-11-01T10:48:42Z</time>
      </trkpt>
      <trkpt lat="43.70581" lon="6.78031">
        <ele>885.36</ele>
        <time>2014-11-01T10:49:29Z</time>
      </trkpt>
      <trkpt lat="43.70585" lon="6.78005">
        <ele>878.69</ele>
        <time>2014-11-01T10:49:51Z</time>
      </trkpt>
      <trkpt lat="43.70594" lon="6.77983">
        <ele>876.43</ele>
        <time>2014-11-01T10:50:11Z</time>
      </trkpt>
      <trkpt lat="43.70604" lon="6.77961">
        <ele>874.46</ele>
        <time>2014-11-01T10:50:34Z</time>
      </trkpt>
      <trkpt lat="43.706" lon="6.77937">
        <ele>864.81</ele>
        <time>2014-11-01T10:52:02Z</time>
      </trkpt>
      <trkpt lat="43.7061" lon="6.77915">
        <ele>859.07</ele>
        <time>2014-11-01T10:52:30Z</time>
      </trkpt>
      <trkpt lat="43.70623" lon="6.77898">
        <ele>858.59</ele>
        <time>2014-11-01T10:52:50Z</time>
      </trkpt>
      <trkpt lat="43.70638" lon="6.77883">
        <ele>859.88</ele>
        <time>2014-11-01T10:53:25Z</time>
      </trkpt>
      <trkpt lat="43.70651" lon="6.77865">
        <ele>854.17</ele>
        <time>2014-11-01T10:54:17Z</time>
      </trkpt>
      <trkpt lat="43.70669" lon="6.77867">
        <ele>862.57</ele>
        <time>2014-11-01T10:54:41Z</time>
      </trkpt>
      <trkpt lat="43.70688" lon="6.77869">
        <ele>866.39</ele>
        <time>2014-11-01T10:55:16Z</time>
      </trkpt>
      <trkpt lat="43.70705" lon="6.77863">
        <ele>868.22</ele>
        <time>2014-11-01T10:55:38Z</time>
      </trkpt>
      <trkpt lat="43.70722" lon="6.77853">
        <ele>869.72</ele>
        <time>2014-11-01T10:56:08Z</time>
      </trkpt>
      <trkpt lat="43.7074" lon="6.77849">
        <ele>872.51</ele>
        <time>2014-11-01T10:56:38Z</time>
      </trkpt>
      <trkpt lat="43.70752" lon="6.77829">
        <ele>867.21</ele>
        <time>2014-11-01T10:57:03Z</time>
      </trkpt>
      <trkpt lat="43.70771" lon="6.77828">
        <ele>869.32</ele>
        <time>2014-11-01T10:57:33Z</time>
      </trkpt>
      <trkpt lat="43.70788" lon="6.77818">
        <ele>870.54</ele>
        <time>2014-11-01T10:58:01Z</time>
      </trkpt>
      <trkpt lat="43.70805" lon="6.77811">
        <ele>873.48</ele>
        <time>2014-11-01T10:58:22Z</time>
      </trkpt>
      <trkpt lat="43.70817" lon="6.77791">
        <ele>869.29</ele>
        <time>2014-11-01T10:58:40Z</time>
      </trkpt>
      <trkpt lat="43.70827" lon="6.77769">
        <ele>865</ele>
        <time>2014-11-01T10:59:00Z</time>
      </trkpt>
      <trkpt lat="43.70838" lon="6.77749">
        <ele>863.92</ele>
        <time>2014-11-01T10:59:17Z</time>
      </trkpt>
      <trkpt lat="43.70845" lon="6.77725">
        <ele>854.83</ele>
        <time>2014-11-01T10:59:39Z</time>
      </trkpt>
      <trkpt lat="43.7085" lon="6.777">
        <ele>844.4</ele>
        <time>2014-11-01T10:59:59Z</time>
      </trkpt>
      <trkpt lat="43.70837" lon="6.77683">
        <ele>828.45</ele>
        <time>2014-11-01T11:00:53Z</time>
      </trkpt>
      <trkpt lat="43.70831" lon="6.7766">
        <ele>816.53</ele>
        <time>2014-11-01T11:08:33Z</time>
      </trkpt>
      <trkpt lat="43.70838" lon="6.77683">
        <ele>829.05</ele>
        <time>2014-11-01T11:09:41Z</time>
      </trkpt>
      <trkpt lat="43.70828" lon="6.77662">
        <ele>815.63</ele>
        <time>2014-11-01T11:10:40Z</time>
      </trkpt>
      <trkpt lat="43.70845" lon="6.7767">
        <ele>828.17</ele>
        <time>2014-11-01T11:16:40Z</time>
      </trkpt>
      <trkpt lat="43.70827" lon="6.77678">
        <ele>821.05</ele>
        <time>2014-11-01T11:31:27Z</time>
      </trkpt>
      <trkpt lat="43.70846" lon="6.77677">
        <ele>831.61</ele>
        <time>2014-11-01T11:37:06Z</time>
      </trkpt>
      <trkpt lat="43.70828" lon="6.7768">
        <ele>822.15</ele>
        <time>2014-11-01T11:39:29Z</time>
      </trkpt>
      <trkpt lat="43.70843" lon="6.77665">
        <ele>825.14</ele>
        <time>2014-11-01T11:45:48Z</time>
      </trkpt>
      <trkpt lat="43.7083" lon="6.77683">
        <ele>824.1</ele>
        <time>2014-11-01T11:48:04Z</time>
      </trkpt>
      <trkpt lat="43.70847" lon="6.77688">
        <ele>837.1</ele>
        <time>2014-11-01T11:50:32Z</time>
      </trkpt>
      <trkpt lat="43.70865" lon="6.77683">
        <ele>845.04</ele>
        <time>2014-11-01T11:51:04Z</time>
      </trkpt>
      <trkpt lat="43.7088" lon="6.77668">
        <ele>843.43</ele>
        <time>2014-11-01T11:51:27Z</time>
      </trkpt>
      <trkpt lat="43.70891" lon="6.77648">
        <ele>835.49</ele>
        <time>2014-11-01T11:51:50Z</time>
      </trkpt>
      <trkpt lat="43.70898" lon="6.77623">
        <ele>827.77</ele>
        <time>2014-11-01T11:52:08Z</time>
      </trkpt>
      <trkpt lat="43.70907" lon="6.77601">
        <ele>825.41</ele>
        <time>2014-11-01T11:52:46Z</time>
      </trkpt>
      <trkpt lat="43.70923" lon="6.77589">
        <ele>828.56</ele>
        <time>2014-11-01T11:53:10Z</time>
      </trkpt>
      <trkpt lat="43.70935" lon="6.7757">
        <ele>828.02</ele>
        <time>2014-11-01T11:53:29Z</time>
      </trkpt>
      <trkpt lat="43.70942" lon="6.77546">
        <ele>822.06</ele>
        <time>2014-11-01T11:53:53Z</time>
      </trkpt>
      <trkpt lat="43.70959" lon="6.77539">
        <ele>824.79</ele>
        <time>2014-11-01T11:54:27Z</time>
      </trkpt>
      <trkpt lat="43.70975" lon="6.77527">
        <ele>825.65</ele>
        <time>2014-11-01T11:54:51Z</time>
      </trkpt>
      <trkpt lat="43.70992" lon="6.7752">
        <ele>828.91</ele>
        <time>2014-11-01T11:55:16Z</time>
      </trkpt>
      <trkpt lat="43.71008" lon="6.77507">
        <ele>830.08</ele>
        <time>2014-11-01T11:55:39Z</time>
      </trkpt>
      <trkpt lat="43.71023" lon="6.77492">
        <ele>829.79</ele>
        <time>2014-11-01T11:55:58Z</time>
      </trkpt>
      <trkpt lat="43.71032" lon="6.77468">
        <ele>825.42</ele>
        <time>2014-11-01T11:56:19Z</time>
      </trkpt>
      <trkpt lat="43.71042" lon="6.77447">
        <ele>821.98</ele>
        <time>2014-11-01T11:56:40Z</time>
      </trkpt>
      <trkpt lat="43.71048" lon="6.77423">
        <ele>818.71</ele>
        <time>2014-11-01T11:57:02Z</time>
      </trkpt>
      <trkpt lat="43.71056" lon="6.774">
        <ele>814.81</ele>
        <time>2014-11-01T11:57:24Z</time>
      </trkpt>
      <trkpt lat="43.71063" lon="6.77377">
        <ele>810.59</ele>
        <time>2014-11-01T11:57:41Z</time>
      </trkpt>
      <trkpt lat="43.71075" lon="6.77359">
        <ele>810.7</ele>
        <time>2014-11-01T11:58:09Z</time>
      </trkpt>
      <trkpt lat="43.71094" lon="6.77351">
        <ele>816.07</ele>
        <time>2014-11-01T11:58:29Z</time>
      </trkpt>
      <trkpt lat="43.71104" lon="6.7733">
        <ele>815.12</ele>
        <time>2014-11-01T11:58:47Z</time>
      </trkpt>
      <trkpt lat="43.71105" lon="6.77304">
        <ele>808.25</ele>
        <time>2014-11-01T11:59:09Z</time>
      </trkpt>
      <trkpt lat="43.7111" lon="6.77279">
        <ele>804.94</ele>
        <time>2014-11-01T11:59:38Z</time>
      </trkpt>
      <trkpt lat="43.7112" lon="6.77257">
        <ele>804.89</ele>
        <time>2014-11-01T11:59:59Z</time>
      </trkpt>
      <trkpt lat="43.71111" lon="6.77235">
        <ele>796.04</ele>
        <time>2014-11-01T12:00:21Z</time>
      </trkpt>
      <trkpt lat="43.71105" lon="6.77211">
        <ele>785.92</ele>
        <time>2014-11-01T12:01:15Z</time>
      </trkpt>
      <trkpt lat="43.7111" lon="6.77186">
        <ele>779.89</ele>
        <time>2014-11-01T12:01:37Z</time>
      </trkpt>
      <trkpt lat="43.71111" lon="6.7716">
        <ele>762.81</ele>
        <time>2014-11-01T12:02:00Z</time>
      </trkpt>
      <trkpt lat="43.71113" lon="6.77135">
        <ele>739.8</ele>
        <time>2014-11-01T12:02:25Z</time>
      </trkpt>
      <trkpt lat="43.71113" lon="6.7711">
        <ele>723.05</ele>
        <time>2014-11-01T12:03:22Z</time>
      </trkpt>
      <trkpt lat="43.71123" lon="6.77087">
        <ele>722.52</ele>
        <time>2014-11-01T12:03:47Z</time>
      </trkpt>
      <trkpt lat="43.71126" lon="6.77062">
        <ele>710.96</ele>
        <time>2014-11-01T12:04:07Z</time>
      </trkpt>
      <trkpt lat="43.71126" lon="6.77036">
        <ele>702.67</ele>
        <time>2014-11-01T12:04:22Z</time>
      </trkpt>
      <trkpt lat="43.71133" lon="6.77012">
        <ele>696.26</ele>
        <time>2014-11-01T12:04:46Z</time>
      </trkpt>
      <trkpt lat="43.71143" lon="6.7699">
        <ele>690.35</ele>
        <time>2014-11-01T12:05:12Z</time>
      </trkpt>
      <trkpt lat="43.71154" lon="6.76969">
        <ele>686.04</ele>
        <time>2014-11-01T12:05:36Z</time>
      </trkpt>
      <trkpt lat="43.71165" lon="6.76949">
        <ele>683.78</ele>
        <time>2014-11-01T12:06:03Z</time>
      </trkpt>
      <trkpt lat="43.71181" lon="6.76936">
        <ele>683.13</ele>
        <time>2014-11-01T12:06:20Z</time>
      </trkpt>
      <trkpt lat="43.71196" lon="6.7692">
        <ele>681.12</ele>
        <time>2014-11-01T12:06:58Z</time>
      </trkpt>
      <trkpt lat="43.71215" lon="6.76924">
        <ele>683.06</ele>
        <time>2014-11-01T12:07:22Z</time>
      </trkpt>
      <trkpt lat="43.71234" lon="6.76919">
        <ele>683.36</ele>
        <time>2014-11-01T12:07:44Z</time>
      </trkpt>
      <trkpt lat="43.71252" lon="6.76908">
        <ele>684.17</ele>
        <time>2014-11-01T12:08:08Z</time>
      </trkpt>
      <trkpt lat="43.7127" lon="6.76913">
        <ele>686.49</ele>
        <time>2014-11-01T12:08:34Z</time>
      </trkpt>
      <trkpt lat="43.71288" lon="6.76906">
        <ele>686.53</ele>
        <time>2014-11-01T12:08:57Z</time>
      </trkpt>
      <trkpt lat="43.71307" lon="6.76907">
        <ele>689.69</ele>
        <time>2014-11-01T12:09:16Z</time>
      </trkpt>
      <trkpt lat="43.71321" lon="6.76891">
        <ele>688.1</ele>
        <time>2014-11-01T12:10:05Z</time>
      </trkpt>
      <trkpt lat="43.71335" lon="6.76874">
        <ele>684.86</ele>
        <time>2014-11-01T12:11:08Z</time>
      </trkpt>
      <trkpt lat="43.71352" lon="6.76864">
        <ele>681.19</ele>
        <time>2014-11-01T12:11:28Z</time>
      </trkpt>
      <trkpt lat="43.71367" lon="6.76849">
        <ele>680.9</ele>
        <time>2014-11-01T12:11:45Z</time>
      </trkpt>
      <trkpt lat="43.71383" lon="6.76837">
        <ele>680.85</ele>
        <time>2014-11-01T12:12:10Z</time>
      </trkpt>
      <trkpt lat="43.71401" lon="6.76831">
        <ele>682.52</ele>
        <time>2014-11-01T12:12:31Z</time>
      </trkpt>
      <trkpt lat="43.71419" lon="6.76824">
        <ele>685.04</ele>
        <time>2014-11-01T12:12:47Z</time>
      </trkpt>
      <trkpt lat="43.71436" lon="6.76814">
        <ele>685.9</ele>
        <time>2014-11-01T12:13:02Z</time>
      </trkpt>
      <trkpt lat="43.71452" lon="6.76803">
        <ele>687.15</ele>
        <time>2014-11-01T12:13:18Z</time>
      </trkpt>
      <trkpt lat="43.71469" lon="6.76794">
        <ele>689.55</ele>
        <time>2014-11-01T12:13:37Z</time>
      </trkpt>
      <trkpt lat="43.71486" lon="6.76784">
        <ele>692.61</ele>
        <time>2014-11-01T12:13:56Z</time>
      </trkpt>
      <trkpt lat="43.71504" lon="6.76783">
        <ele>695.44</ele>
        <time>2014-11-01T12:14:12Z</time>
      </trkpt>
      <trkpt lat="43.71523" lon="6.76781">
        <ele>698.23</ele>
        <time>2014-11-01T12:14:34Z</time>
      </trkpt>
      <trkpt lat="43.7154" lon="6.76792">
        <ele>700.54</ele>
        <time>2014-11-01T12:14:55Z</time>
      </trkpt>
      <trkpt lat="43.71556" lon="6.7678">
        <ele>700.36</ele>
        <time>2014-11-01T12:15:20Z</time>
      </trkpt>
      <trkpt lat="43.71572" lon="6.76768">
        <ele>704.16</ele>
        <time>2014-11-01T12:15:38Z</time>
      </trkpt>
      <trkpt lat="43.7159" lon="6.76761">
        <ele>708.95</ele>
        <time>2014-11-01T12:16:17Z</time>
      </trkpt>
      <trkpt lat="43.71608" lon="6.76757">
        <ele>713.68</ele>
        <time>2014-11-01T12:16:36Z</time>
      </trkpt>
      <trkpt lat="43.71625" lon="6.76749">
        <ele>717.06</ele>
        <time>2014-11-01T12:16:54Z</time>
      </trkpt>
      <trkpt lat="43.71642" lon="6.76759">
        <ele>719.12</ele>
        <time>2014-11-01T12:17:12Z</time>
      </trkpt>
      <trkpt lat="43.71657" lon="6.76775">
        <ele>719.64</ele>
        <time>2014-11-01T12:17:31Z</time>
      </trkpt>
      <trkpt lat="43.71669" lon="6.76795">
        <ele>720</ele>
        <time>2014-11-01T12:17:50Z</time>
      </trkpt>
      <trkpt lat="43.71685" lon="6.76806">
        <ele>720.04</ele>
        <time>2014-11-01T12:18:14Z</time>
      </trkpt>
      <trkpt lat="43.71703" lon="6.76812">
        <ele>720.68</ele>
        <time>2014-11-01T12:18:34Z</time>
      </trkpt>
      <trkpt lat="43.71721" lon="6.76818">
        <ele>721.33</ele>
        <time>2014-11-01T12:18:50Z</time>
      </trkpt>
      <trkpt lat="43.71738" lon="6.76825">
        <ele>722.07</ele>
        <time>2014-11-01T12:19:16Z</time>
      </trkpt>
      <trkpt lat="43.71755" lon="6.76836">
        <ele>724.09</ele>
        <time>2014-11-01T12:19:34Z</time>
      </trkpt>
      <trkpt lat="43.71771" lon="6.76847">
        <ele>727.9</ele>
        <time>2014-11-01T12:19:50Z</time>
      </trkpt>
      <trkpt lat="43.71789" lon="6.76847">
        <ele>727.22</ele>
        <time>2014-11-01T12:20:12Z</time>
      </trkpt>
      <trkpt lat="43.71808" lon="6.76852">
        <ele>727.26</ele>
        <time>2014-11-01T12:20:27Z</time>
      </trkpt>
      <trkpt lat="43.71826" lon="6.76856">
        <ele>727.3</ele>
        <time>2014-11-01T12:20:48Z</time>
      </trkpt>
      <trkpt lat="43.71844" lon="6.76862">
        <ele>728.22</ele>
        <time>2014-11-01T12:21:47Z</time>
      </trkpt>
      <trkpt lat="43.71862" lon="6.76861">
        <ele>727.93</ele>
        <time>2014-11-01T12:22:15Z</time>
      </trkpt>
      <trkpt lat="43.7188" lon="6.76865">
        <ele>728.9</ele>
        <time>2014-11-01T12:22:41Z</time>
      </trkpt>
      <trkpt lat="43.71898" lon="6.76872">
        <ele>730.24</ele>
        <time>2014-11-01T12:23:03Z</time>
      </trkpt>
      <trkpt lat="43.71916" lon="6.76876">
        <ele>731.28</ele>
        <time>2014-11-01T12:23:23Z</time>
      </trkpt>
      <trkpt lat="43.71934" lon="6.76883">
        <ele>733.34</ele>
        <time>2014-11-01T12:23:45Z</time>
      </trkpt>
      <trkpt lat="43.71952" lon="6.76891">
        <ele>735.87</ele>
        <time>2014-11-01T12:24:04Z</time>
      </trkpt>
      <trkpt lat="43.7197" lon="6.76894">
        <ele>737.89</ele>
        <time>2014-11-01T12:24:27Z</time>
      </trkpt>
      <trkpt lat="43.71988" lon="6.76898">
        <ele>740.57</ele>
        <time>2014-11-01T12:24:42Z</time>
      </trkpt>
      <trkpt lat="43.72007" lon="6.76902">
        <ele>742.74</ele>
        <time>2014-11-01T12:25:00Z</time>
      </trkpt>
      <trkpt lat="43.72025" lon="6.76904">
        <ele>744.09</ele>
        <time>2014-11-01T12:25:33Z</time>
      </trkpt>
      <trkpt lat="43.72044" lon="6.76906">
        <ele>744.81</ele>
        <time>2014-11-01T12:25:49Z</time>
      </trkpt>
      <trkpt lat="43.72062" lon="6.76909">
        <ele>745.78</ele>
        <time>2014-11-01T12:26:03Z</time>
      </trkpt>
      <trkpt lat="43.72081" lon="6.76909">
        <ele>745.88</ele>
        <time>2014-11-01T12:26:26Z</time>
      </trkpt>
      <trkpt lat="43.721" lon="6.76909">
        <ele>747.11</ele>
        <time>2014-11-01T12:26:45Z</time>
      </trkpt>
      <trkpt lat="43.72117" lon="6.76918">
        <ele>749.9</ele>
        <time>2014-11-01T12:26:58Z</time>
      </trkpt>
      <trkpt lat="43.72134" lon="6.7693">
        <ele>754.02</ele>
        <time>2014-11-01T12:27:13Z</time>
      </trkpt>
      <trkpt lat="43.72152" lon="6.76924">
        <ele>752.33</ele>
        <time>2014-11-01T12:27:29Z</time>
      </trkpt>
      <trkpt lat="43.7217" lon="6.76917">
        <ele>749.77</ele>
        <time>2014-11-01T12:27:46Z</time>
      </trkpt>
      <trkpt lat="43.72189" lon="6.76916">
        <ele>746.63</ele>
        <time>2014-11-01T12:28:02Z</time>
      </trkpt>
      <trkpt lat="43.72207" lon="6.76912">
        <ele>742.78</ele>
        <time>2014-11-01T12:28:17Z</time>
      </trkpt>
      <trkpt lat="43.72225" lon="6.76908">
        <ele>740</ele>
        <time>2014-11-01T12:28:35Z</time>
      </trkpt>
      <trkpt lat="43.72244" lon="6.76905">
        <ele>740</ele>
        <time>2014-11-01T12:28:52Z</time>
      </trkpt>
      <trkpt lat="43.72262" lon="6.769">
        <ele>740</ele>
        <time>2014-11-01T12:29:15Z</time>
      </trkpt>
      <trkpt lat="43.7228" lon="6.76902">
        <ele>740</ele>
        <time>2014-11-01T12:29:32Z</time>
      </trkpt>
      <trkpt lat="43.72299" lon="6.76899">
        <ele>740</ele>
        <time>2014-11-01T12:29:49Z</time>
      </trkpt>
      <trkpt lat="43.72317" lon="6.76895">
        <ele>740</ele>
        <time>2014-11-01T12:30:04Z</time>
      </trkpt>
      <trkpt lat="43.72335" lon="6.7689">
        <ele>740</ele>
        <time>2014-11-01T12:30:26Z</time>
      </trkpt>
      <trkpt lat="43.72347" lon="6.76871">
        <ele>740</ele>
        <time>2014-11-01T12:30:44Z</time>
      </trkpt>
      <trkpt lat="43.72348" lon="6.76846">
        <ele>740</ele>
        <time>2014-11-01T12:31:03Z</time>
      </trkpt>
      <trkpt lat="43.72359" lon="6.76825">
        <ele>740</ele>
        <time>2014-11-01T12:33:53Z</time>
      </trkpt>
      <trkpt lat="43.72372" lon="6.76808">
        <ele>740</ele>
        <time>2014-11-01T12:34:18Z</time>
      </trkpt>
      <trkpt lat="43.72387" lon="6.76792">
        <ele>740</ele>
        <time>2014-11-01T12:34:46Z</time>
      </trkpt>
      <trkpt lat="43.72404" lon="6.76783">
        <ele>740</ele>
        <time>2014-11-01T12:35:15Z</time>
      </trkpt>
      <trkpt lat="43.72417" lon="6.76765">
        <ele>740.01</ele>
        <time>2014-11-01T12:35:45Z</time>
      </trkpt>
      <trkpt lat="43.72436" lon="6.76759">
        <ele>740.46</ele>
        <time>2014-11-01T12:36:11Z</time>
      </trkpt>
      <trkpt lat="43.72454" lon="6.76752">
        <ele>742.59</ele>
        <time>2014-11-01T12:36:30Z</time>
      </trkpt>
      <trkpt lat="43.7247" lon="6.76741">
        <ele>746.01</ele>
        <time>2014-11-01T12:36:51Z</time>
      </trkpt>
      <trkpt lat="43.72488" lon="6.76732">
        <ele>748.55</ele>
        <time>2014-11-01T12:37:12Z</time>
      </trkpt>
      <trkpt lat="43.72505" lon="6.76722">
        <ele>750.9</ele>
        <time>2014-11-01T12:37:34Z</time>
      </trkpt>
      <trkpt lat="43.72523" lon="6.76722">
        <ele>754.2</ele>
        <time>2014-11-01T12:37:54Z</time>
      </trkpt>
      <trkpt lat="43.7254" lon="6.76731">
        <ele>757.12</ele>
        <time>2014-11-01T12:38:11Z</time>
      </trkpt>
      <trkpt lat="43.72559" lon="6.76734">
        <ele>759.61</ele>
        <time>2014-11-01T12:38:33Z</time>
      </trkpt>
      <trkpt lat="43.72578" lon="6.76736">
        <ele>759.9</ele>
        <time>2014-11-01T12:38:52Z</time>
      </trkpt>
      <trkpt lat="43.72596" lon="6.7674">
        <ele>760</ele>
        <time>2014-11-01T12:39:20Z</time>
      </trkpt>
      <trkpt lat="43.72613" lon="6.76736">
        <ele>760.21</ele>
        <time>2014-11-01T12:39:42Z</time>
      </trkpt>
      <trkpt lat="43.72632" lon="6.76733">
        <ele>762.07</ele>
        <time>2014-11-01T12:40:06Z</time>
      </trkpt>
      <trkpt lat="43.7265" lon="6.76731">
        <ele>765.58</ele>
        <time>2014-11-01T12:40:28Z</time>
      </trkpt>
      <trkpt lat="43.72668" lon="6.76725">
        <ele>770.01</ele>
        <time>2014-11-01T12:40:51Z</time>
      </trkpt>
      <trkpt lat="43.72686" lon="6.76722">
        <ele>773.49</ele>
        <time>2014-11-01T12:41:13Z</time>
      </trkpt>
      <trkpt lat="43.72704" lon="6.76718">
        <ele>776.79</ele>
        <time>2014-11-01T12:41:33Z</time>
      </trkpt>
      <trkpt lat="43.72723" lon="6.76715">
        <ele>779.34</ele>
        <time>2014-11-01T12:41:53Z</time>
      </trkpt>
      <trkpt lat="43.7274" lon="6.76706">
        <ele>782.86</ele>
        <time>2014-11-01T12:42:15Z</time>
      </trkpt>
      <trkpt lat="43.72758" lon="6.76695">
        <ele>786.76</ele>
        <time>2014-11-01T12:42:46Z</time>
      </trkpt>
      <trkpt lat="43.72776" lon="6.76687">
        <ele>790.89</ele>
        <time>2014-11-01T12:43:09Z</time>
      </trkpt>
      <trkpt lat="43.72794" lon="6.7668">
        <ele>793.27</ele>
        <time>2014-11-01T12:48:20Z</time>
      </trkpt>
      <trkpt lat="43.72813" lon="6.76675">
        <ele>795.72</ele>
        <time>2014-11-01T12:48:38Z</time>
      </trkpt>
      <trkpt lat="43.7283" lon="6.76671">
        <ele>798.43</ele>
        <time>2014-11-01T12:48:55Z</time>
      </trkpt>
      <trkpt lat="43.72847" lon="6.7666">
        <ele>802.22</ele>
        <time>2014-11-01T12:49:14Z</time>
      </trkpt>
      <trkpt lat="43.72863" lon="6.76648">
        <ele>806.99</ele>
        <time>2014-11-01T12:49:35Z</time>
      </trkpt>
      <trkpt lat="43.72875" lon="6.76666">
        <ele>806.06</ele>
        <time>2014-11-01T13:02:14Z</time>
      </trkpt>
      <trkpt lat="43.72862" lon="6.76647">
        <ele>806.88</ele>
        <time>2014-11-01T13:05:12Z</time>
      </trkpt>
      <trkpt lat="43.72879" lon="6.76656">
        <ele>808.12</ele>
        <time>2014-11-01T13:11:41Z</time>
      </trkpt>
      <trkpt lat="43.72861" lon="6.76648">
        <ele>806.68</ele>
        <time>2014-11-01T13:12:28Z</time>
      </trkpt>
      <trkpt lat="43.72879" lon="6.76643">
        <ele>810.02</ele>
        <time>2014-11-01T13:14:52Z</time>
      </trkpt>
      <trkpt lat="43.72897" lon="6.76638">
        <ele>813.23</ele>
        <time>2014-11-01T13:15:24Z</time>
      </trkpt>
      <trkpt lat="43.72915" lon="6.76639">
        <ele>815.81</ele>
        <time>2014-11-01T13:16:04Z</time>
      </trkpt>
      <trkpt lat="43.72933" lon="6.76634">
        <ele>818.42</ele>
        <time>2014-11-01T13:16:46Z</time>
      </trkpt>
      <trkpt lat="43.72952" lon="6.76636">
        <ele>820.13</ele>
        <time>2014-11-01T13:17:36Z</time>
      </trkpt>
      <trkpt lat="43.7297" lon="6.76637">
        <ele>822.01</ele>
        <time>2014-11-01T13:18:10Z</time>
      </trkpt>
      <trkpt lat="43.72988" lon="6.7663">
        <ele>828.56</ele>
        <time>2014-11-01T13:18:32Z</time>
      </trkpt>
      <trkpt lat="43.73006" lon="6.76618">
        <ele>834.19</ele>
        <time>2014-11-01T13:18:54Z</time>
      </trkpt>
      <trkpt lat="43.73022" lon="6.76607">
        <ele>836.53</ele>
        <time>2014-11-01T13:19:15Z</time>
      </trkpt>
      <trkpt lat="43.73039" lon="6.76599">
        <ele>838.28</ele>
        <time>2014-11-01T13:19:38Z</time>
      </trkpt>
      <trkpt lat="43.73057" lon="6.766">
        <ele>839.79</ele>
        <time>2014-11-01T13:20:01Z</time>
      </trkpt>
      <trkpt lat="43.73075" lon="6.76592">
        <ele>840.85</ele>
        <time>2014-11-01T13:20:26Z</time>
      </trkpt>
      <trkpt lat="43.73091" lon="6.76578">
        <ele>841.56</ele>
        <time>2014-11-01T13:20:56Z</time>
      </trkpt>
      <trkpt lat="43.73109" lon="6.76574">
        <ele>844.61</ele>
        <time>2014-11-01T13:21:21Z</time>
      </trkpt>
      <trkpt lat="43.73127" lon="6.76581">
        <ele>847.98</ele>
        <time>2014-11-01T13:21:53Z</time>
      </trkpt>
      <trkpt lat="43.73142" lon="6.76596">
        <ele>852.27</ele>
        <time>2014-11-01T13:22:38Z</time>
      </trkpt>
      <trkpt lat="43.73129" lon="6.76614">
        <ele>853.12</ele>
        <time>2014-11-01T13:23:06Z</time>
      </trkpt>
      <trkpt lat="43.73111" lon="6.76624">
        <ele>851.81</ele>
        <time>2014-11-01T13:23:37Z</time>
      </trkpt>
      <trkpt lat="43.73099" lon="6.76643">
        <ele>852.67</ele>
        <time>2014-11-01T13:24:05Z</time>
      </trkpt>
      <trkpt lat="43.73082" lon="6.76651">
        <ele>850.98</ele>
        <time>2014-11-01T13:24:28Z</time>
      </trkpt>
      <trkpt lat="43.73068" lon="6.76669">
        <ele>850.08</ele>
        <time>2014-11-01T13:25:01Z</time>
      </trkpt>
      <trkpt lat="43.73053" lon="6.76684">
        <ele>849.44</ele>
        <time>2014-11-01T13:25:34Z</time>
      </trkpt>
      <trkpt lat="43.73042" lon="6.76704">
        <ele>850.76</ele>
        <time>2014-11-01T13:26:03Z</time>
      </trkpt>
      <trkpt lat="43.73027" lon="6.7672">
        <ele>851.4</ele>
        <time>2014-11-01T13:26:25Z</time>
      </trkpt>
      <trkpt lat="43.73014" lon="6.76738">
        <ele>851.36</ele>
        <time>2014-11-01T13:26:54Z</time>
      </trkpt>
      <trkpt lat="43.73" lon="6.76755">
        <ele>851.14</ele>
        <time>2014-11-01T13:27:17Z</time>
      </trkpt>
      <trkpt lat="43.72989" lon="6.76776">
        <ele>852.94</ele>
        <time>2014-11-01T13:27:44Z</time>
      </trkpt>
      <trkpt lat="43.72975" lon="6.76793">
        <ele>853.79</ele>
        <time>2014-11-01T13:28:01Z</time>
      </trkpt>
      <trkpt lat="43.72963" lon="6.76812">
        <ele>855.41</ele>
        <time>2014-11-01T13:28:21Z</time>
      </trkpt>
      <trkpt lat="43.72948" lon="6.76827">
        <ele>855.21</ele>
        <time>2014-11-01T13:28:40Z</time>
      </trkpt>
      <trkpt lat="43.72941" lon="6.76851">
        <ele>860.23</ele>
        <time>2014-11-01T13:29:08Z</time>
      </trkpt>
      <trkpt lat="43.72932" lon="6.76873">
        <ele>863.22</ele>
        <time>2014-11-01T13:29:37Z</time>
      </trkpt>
      <trkpt lat="43.72926" lon="6.76896">
        <ele>866.63</ele>
        <time>2014-11-01T13:30:17Z</time>
      </trkpt>
      <trkpt lat="43.72931" lon="6.7692">
        <ele>873.32</ele>
        <time>2014-11-01T13:30:43Z</time>
      </trkpt>
      <trkpt lat="43.72928" lon="6.76945">
        <ele>878.94</ele>
        <time>2014-11-01T13:32:12Z</time>
      </trkpt>
      <trkpt lat="43.72939" lon="6.76965">
        <ele>887.07</ele>
        <time>2014-11-01T13:32:47Z</time>
      </trkpt>
      <trkpt lat="43.7295" lon="6.76984">
        <ele>896.34</ele>
        <time>2014-11-01T13:33:16Z</time>
      </trkpt>
      <trkpt lat="43.72969" lon="6.76985">
        <ele>901.44</ele>
        <time>2014-11-01T13:33:44Z</time>
      </trkpt>
      <trkpt lat="43.72975" lon="6.77009">
        <ele>907.23</ele>
        <time>2014-11-01T13:34:15Z</time>
      </trkpt>
      <trkpt lat="43.72993" lon="6.77005">
        <ele>910.35</ele>
        <time>2014-11-01T13:34:41Z</time>
      </trkpt>
      <trkpt lat="43.73009" lon="6.76993">
        <ele>911.37</ele>
        <time>2014-11-01T13:40:03Z</time>
      </trkpt>
      <trkpt lat="43.73023" lon="6.76976">
        <ele>910.89</ele>
        <time>2014-11-01T13:40:20Z</time>
      </trkpt>
      <trkpt lat="43.73041" lon="6.7697">
        <ele>913.08</ele>
        <time>2014-11-01T13:40:36Z</time>
      </trkpt>
      <trkpt lat="43.73042" lon="6.76997">
        <ele>918</ele>
        <time>2014-11-01T13:40:56Z</time>
      </trkpt>
      <trkpt lat="43.73041" lon="6.77022">
        <ele>921.22</ele>
        <time>2014-11-01T13:41:15Z</time>
      </trkpt>
      <trkpt lat="43.73046" lon="6.77047">
        <ele>924.4</ele>
        <time>2014-11-01T13:41:34Z</time>
      </trkpt>
      <trkpt lat="43.73049" lon="6.77072">
        <ele>927.59</ele>
        <time>2014-11-01T13:41:51Z</time>
      </trkpt>
      <trkpt lat="43.73051" lon="6.77098">
        <ele>931.11</ele>
        <time>2014-11-01T13:42:06Z</time>
      </trkpt>
      <trkpt lat="43.73044" lon="6.77122">
        <ele>932.18</ele>
        <time>2014-11-01T13:42:23Z</time>
      </trkpt>
      <trkpt lat="43.73035" lon="6.77144">
        <ele>932.26</ele>
        <time>2014-11-01T13:42:40Z</time>
      </trkpt>
      <trkpt lat="43.73028" lon="6.77167">
        <ele>933.01</ele>
        <time>2014-11-01T13:42:55Z</time>
      </trkpt>
      <trkpt lat="43.73021" lon="6.77191">
        <ele>934.66</ele>
        <time>2014-11-01T13:43:14Z</time>
      </trkpt>
      <trkpt lat="43.73012" lon="6.77214">
        <ele>934.77</ele>
        <time>2014-11-01T13:43:36Z</time>
      </trkpt>
      <trkpt lat="43.73005" lon="6.77238">
        <ele>935.55</ele>
        <time>2014-11-01T13:43:52Z</time>
      </trkpt>
      <trkpt lat="43.72998" lon="6.77263">
        <ele>937</ele>
        <time>2014-11-01T13:44:05Z</time>
      </trkpt>
      <trkpt lat="43.72989" lon="6.77286">
        <ele>937.39</ele>
        <time>2014-11-01T13:44:24Z</time>
      </trkpt>
      <trkpt lat="43.72981" lon="6.77309">
        <ele>937.48</ele>
        <time>2014-11-01T13:44:46Z</time>
      </trkpt>
      <trkpt lat="43.72976" lon="6.77335">
        <ele>938.69</ele>
        <time>2014-11-01T13:45:01Z</time>
      </trkpt>
      <trkpt lat="43.72975" lon="6.77361">
        <ele>940.34</ele>
        <time>2014-11-01T13:45:17Z</time>
      </trkpt>
      <trkpt lat="43.72973" lon="6.77386">
        <ele>940.96</ele>
        <time>2014-11-01T13:45:31Z</time>
      </trkpt>
      <trkpt lat="43.72973" lon="6.77411">
        <ele>942.03</ele>
        <time>2014-11-01T13:45:57Z</time>
      </trkpt>
      <trkpt lat="43.72972" lon="6.77437">
        <ele>942.73</ele>
        <time>2014-11-01T13:48:15Z</time>
      </trkpt>
      <trkpt lat="43.72979" lon="6.77461">
        <ele>945.46</ele>
        <time>2014-11-01T13:49:12Z</time>
      </trkpt>
      <trkpt lat="43.72984" lon="6.77486">
        <ele>948.11</ele>
        <time>2014-11-01T13:49:33Z</time>
      </trkpt>
      <trkpt lat="43.72992" lon="6.77508">
        <ele>951.08</ele>
        <time>2014-11-01T13:49:49Z</time>
      </trkpt>
      <trkpt lat="43.72999" lon="6.77532">
        <ele>954.16</ele>
        <time>2014-11-01T13:50:10Z</time>
      </trkpt>
      <trkpt lat="43.73005" lon="6.77556">
        <ele>956.76</ele>
        <time>2014-11-01T13:50:25Z</time>
      </trkpt>
      <trkpt lat="43.73004" lon="6.77583">
        <ele>958.47</ele>
        <time>2014-11-01T13:50:42Z</time>
      </trkpt>
      <trkpt lat="43.73002" lon="6.77608">
        <ele>959.11</ele>
        <time>2014-11-01T13:50:58Z</time>
      </trkpt>
      <trkpt lat="43.72992" lon="6.7763">
        <ele>957.87</ele>
        <time>2014-11-01T13:51:17Z</time>
      </trkpt>
      <trkpt lat="43.72984" lon="6.77653">
        <ele>957.05</ele>
        <time>2014-11-01T13:51:35Z</time>
      </trkpt>
      <trkpt lat="43.72981" lon="6.77679">
        <ele>957.44</ele>
        <time>2014-11-01T13:51:52Z</time>
      </trkpt>
      <trkpt lat="43.72979" lon="6.77704">
        <ele>958.38</ele>
        <time>2014-11-01T13:52:09Z</time>
      </trkpt>
      <trkpt lat="43.72974" lon="6.7773">
        <ele>958.67</ele>
        <time>2014-11-01T13:52:25Z</time>
      </trkpt>
      <trkpt lat="43.7297" lon="6.77755">
        <ele>958.18</ele>
        <time>2014-11-01T13:52:42Z</time>
      </trkpt>
      <trkpt lat="43.72965" lon="6.77779">
        <ele>956.13</ele>
        <time>2014-11-01T13:52:58Z</time>
      </trkpt>
      <trkpt lat="43.72961" lon="6.77804">
        <ele>954.24</ele>
        <time>2014-11-01T13:53:27Z</time>
      </trkpt>
      <trkpt lat="43.72956" lon="6.77829">
        <ele>952.36</ele>
        <time>2014-11-01T13:53:48Z</time>
      </trkpt>
      <trkpt lat="43.72953" lon="6.77854">
        <ele>950.35</ele>
        <time>2014-11-01T13:54:08Z</time>
      </trkpt>
      <trkpt lat="43.72952" lon="6.77879">
        <ele>949.1</ele>
        <time>2014-11-01T13:54:23Z</time>
      </trkpt>
      <trkpt lat="43.7295" lon="6.77904">
        <ele>947.87</ele>
        <time>2014-11-01T13:54:42Z</time>
      </trkpt>
      <trkpt lat="43.7295" lon="6.7793">
        <ele>946.92</ele>
        <time>2014-11-01T13:54:59Z</time>
      </trkpt>
      <trkpt lat="43.7295" lon="6.77956">
        <ele>947.3</ele>
        <time>2014-11-01T13:55:17Z</time>
      </trkpt>
      <trkpt lat="43.72952" lon="6.77982">
        <ele>948.81</ele>
        <time>2014-11-01T13:55:33Z</time>
      </trkpt>
      <trkpt lat="43.72955" lon="6.78006">
        <ele>951.32</ele>
        <time>2014-11-01T13:55:52Z</time>
      </trkpt>
      <trkpt lat="43.72961" lon="6.78032">
        <ele>955.58</ele>
        <time>2014-11-01T13:56:08Z</time>
      </trkpt>
      <trkpt lat="43.72951" lon="6.78053">
        <ele>955.75</ele>
        <time>2014-11-01T13:56:25Z</time>
      </trkpt>
      <trkpt lat="43.72939" lon="6.78072">
        <ele>954.83</ele>
        <time>2014-11-01T13:56:38Z</time>
      </trkpt>
      <trkpt lat="43.72927" lon="6.78092">
        <ele>954.34</ele>
        <time>2014-11-01T13:56:55Z</time>
      </trkpt>
      <trkpt lat="43.72916" lon="6.78112">
        <ele>954.99</ele>
        <time>2014-11-01T13:57:13Z</time>
      </trkpt>
      <trkpt lat="43.72902" lon="6.7813">
        <ele>955.3</ele>
        <time>2014-11-01T13:58:52Z</time>
      </trkpt>
      <trkpt lat="43.72899" lon="6.78155">
        <ele>957.32</ele>
        <time>2014-11-01T13:59:19Z</time>
      </trkpt>
      <trkpt lat="43.72896" lon="6.78181">
        <ele>959.21</ele>
        <time>2014-11-01T13:59:39Z</time>
      </trkpt>
      <trkpt lat="43.72907" lon="6.78204">
        <ele>961.4</ele>
        <time>2014-11-01T13:59:58Z</time>
      </trkpt>
      <trkpt lat="43.72912" lon="6.78228">
        <ele>962.24</ele>
        <time>2014-11-01T14:00:14Z</time>
      </trkpt>
      <trkpt lat="43.72904" lon="6.78251">
        <ele>963.11</ele>
        <time>2014-11-01T14:00:35Z</time>
      </trkpt>
      <trkpt lat="43.72894" lon="6.78273">
        <ele>963.19</ele>
        <time>2014-11-01T14:00:57Z</time>
      </trkpt>
      <trkpt lat="43.72891" lon="6.78298">
        <ele>963.91</ele>
        <time>2014-11-01T14:01:17Z</time>
      </trkpt>
      <trkpt lat="43.72891" lon="6.78323">
        <ele>964.81</ele>
        <time>2014-11-01T14:01:39Z</time>
      </trkpt>
      <trkpt lat="43.72889" lon="6.78349">
        <ele>965.61</ele>
        <time>2014-11-01T14:02:04Z</time>
      </trkpt>
      <trkpt lat="43.729" lon="6.7837">
        <ele>967.12</ele>
        <time>2014-11-01T14:02:24Z</time>
      </trkpt>
      <trkpt lat="43.72907" lon="6.78395">
        <ele>968.5</ele>
        <time>2014-11-01T14:02:41Z</time>
      </trkpt>
      <trkpt lat="43.72914" lon="6.78418">
        <ele>969.9</ele>
        <time>2014-11-01T14:03:01Z</time>
      </trkpt>
      <trkpt lat="43.72917" lon="6.78443">
        <ele>972</ele>
        <time>2014-11-01T14:03:22Z</time>
      </trkpt>
      <trkpt lat="43.72918" lon="6.78468">
        <ele>972.42</ele>
        <time>2014-11-01T14:03:40Z</time>
      </trkpt>
      <trkpt lat="43.72919" lon="6.78494">
        <ele>974.1</ele>
        <time>2014-11-01T14:03:57Z</time>
      </trkpt>
      <trkpt lat="43.72912" lon="6.78519">
        <ele>974.22</ele>
        <time>2014-11-01T14:04:12Z</time>
      </trkpt>
      <trkpt lat="43.72909" lon="6.78544">
        <ele>974.77</ele>
        <time>2014-11-01T14:04:31Z</time>
      </trkpt>
      <trkpt lat="43.72908" lon="6.78569">
        <ele>975.52</ele>
        <time>2014-11-01T14:04:47Z</time>
      </trkpt>
      <trkpt lat="43.72908" lon="6.78595">
        <ele>976.49</ele>
        <time>2014-11-01T14:05:06Z</time>
      </trkpt>
      <trkpt lat="43.72905" lon="6.78619">
        <ele>977.09</ele>
        <time>2014-11-01T14:05:21Z</time>
      </trkpt>
      <trkpt lat="43.72908" lon="6.78644">
        <ele>978.21</ele>
        <time>2014-11-01T14:05:44Z</time>
      </trkpt>
      <trkpt lat="43.72921" lon="6.78661">
        <ele>981.49</ele>
        <time>2014-11-01T14:06:06Z</time>
      </trkpt>
      <trkpt lat="43.72933" lon="6.78681">
        <ele>986.28</ele>
        <time>2014-11-01T14:06:21Z</time>
      </trkpt>
      <trkpt lat="43.72941" lon="6.78704">
        <ele>990.35</ele>
        <time>2014-11-01T14:06:40Z</time>
      </trkpt>
      <trkpt lat="43.72941" lon="6.7873">
        <ele>992.61</ele>
        <time>2014-11-01T14:06:56Z</time>
      </trkpt>
      <trkpt lat="43.72941" lon="6.78757">
        <ele>994.43</ele>
        <time>2014-11-01T14:07:13Z</time>
      </trkpt>
      <trkpt lat="43.7294" lon="6.78782">
        <ele>995.26</ele>
        <time>2014-11-01T14:07:30Z</time>
      </trkpt>
      <trkpt lat="43.72939" lon="6.78807">
        <ele>996.85</ele>
        <time>2014-11-01T14:07:51Z</time>
      </trkpt>
      <trkpt lat="43.72941" lon="6.78833">
        <ele>999.25</ele>
        <time>2014-11-01T14:08:13Z</time>
      </trkpt>
      <trkpt lat="43.72944" lon="6.78857">
        <ele>1000.81</ele>
        <time>2014-11-01T14:08:31Z</time>
      </trkpt>
      <trkpt lat="43.72947" lon="6.78882">
        <ele>1003.76</ele>
        <time>2014-11-01T14:08:45Z</time>
      </trkpt>
      <trkpt lat="43.7295" lon="6.78907">
        <ele>1007.13</ele>
        <time>2014-11-01T14:09:01Z</time>
      </trkpt>
      <trkpt lat="43.72949" lon="6.78933">
        <ele>1009.11</ele>
        <time>2014-11-01T14:09:20Z</time>
      </trkpt>
      <trkpt lat="43.72951" lon="6.78959">
        <ele>1011.64</ele>
        <time>2014-11-01T14:09:38Z</time>
      </trkpt>
      <trkpt lat="43.72952" lon="6.78986">
        <ele>1014.27</ele>
        <time>2014-11-01T14:09:55Z</time>
      </trkpt>
      <trkpt lat="43.72951" lon="6.79012">
        <ele>1016.03</ele>
        <time>2014-11-01T14:10:14Z</time>
      </trkpt>
      <trkpt lat="43.7295" lon="6.79037">
        <ele>1017.73</ele>
        <time>2014-11-01T14:10:31Z</time>
      </trkpt>
      <trkpt lat="43.72949" lon="6.79062">
        <ele>1019.74</ele>
        <time>2014-11-01T14:10:48Z</time>
      </trkpt>
      <trkpt lat="43.72943" lon="6.79086">
        <ele>1020.24</ele>
        <time>2014-11-01T14:11:06Z</time>
      </trkpt>
      <trkpt lat="43.72945" lon="6.79112">
        <ele>1023.07</ele>
        <time>2014-11-01T14:11:25Z</time>
      </trkpt>
      <trkpt lat="43.72945" lon="6.79137">
        <ele>1024.92</ele>
        <time>2014-11-01T14:11:41Z</time>
      </trkpt>
      <trkpt lat="43.72947" lon="6.79164">
        <ele>1027.01</ele>
        <time>2014-11-01T14:11:55Z</time>
      </trkpt>
      <trkpt lat="43.7295" lon="6.79188">
        <ele>1029.82</ele>
        <time>2014-11-01T14:12:11Z</time>
      </trkpt>
      <trkpt lat="43.72954" lon="6.79214">
        <ele>1032.08</ele>
        <time>2014-11-01T14:12:27Z</time>
      </trkpt>
      <trkpt lat="43.72958" lon="6.79239">
        <ele>1034.17</ele>
        <time>2014-11-01T14:12:43Z</time>
      </trkpt>
      <trkpt lat="43.72956" lon="6.79264">
        <ele>1035.87</ele>
        <time>2014-11-01T14:13:04Z</time>
      </trkpt>
      <trkpt lat="43.72939" lon="6.79273">
        <ele>1035.99</ele>
        <time>2014-11-01T14:13:25Z</time>
      </trkpt>
    </trkseg>
  </trk>
</gpx>